M I D A S
Marine Information and Data Acquisition System
Tripno 1479 of the Zeeleeuw from 2008-05-05 14:10:10 to 2008-05-05 14:39:50
Back to CruiseResearch ActivitiesStationsMapUnderway DataData graphs

EquipmentUnitsComments
TimeDGPSUTC
LatitudeDGPSDM.mWGS84
LongitudeDGPSDM.mWGS84
SpeedMeteo Stationm/sRelative wind speed
DirectionMeteo StationdegRelative wind direction
TemperatureMeteo Stationdeg CelciusAir temperature
PressureMeteo StationPaAtmospheric pressure
HumidityMeteo Station%Relative humidity
Missing or incorrect values are displayed as -999
Metereological data collected by the RV Zeeleeuw from 2008-05-05 09:10:15 to 2008-05-05 14:53:45
Time Latitude Longitude Speed Direction Temperature Pressure Humidity
2008-05-05 09:11 51°14.562 2°54.279 -999 -999 -999 -999 -999
2008-05-05 09:12 51°14.512 2°54.576 -999 -999 -999 -999 -999
2008-05-05 09:13 51°14.441 2°54.816 -999 -999 -999 -999 -999
2008-05-05 09:14 51°14.375 2°55.021 -999 -999 -999 -999 -999
2008-05-05 09:15 51°14.293 2°55.21 -999 -999 -999 -999 -999
2008-05-05 09:16 51°14.192 2°55.368 -999 -999 -999 -999 -999
2008-05-05 09:17 51°14.081 2°55.463 -999 -999 -999 -999 -999
2008-05-05 09:18 51°14.004 2°55.518 -999 -999 -999 -999 -999
2008-05-05 09:19 51°13.928 2°55.57 -999 -999 -999 -999 -999
2008-05-05 09:20 51°13.847 2°55.626 -999 -999 -999 -999 -999
2008-05-05 09:21 51°13.773 2°55.686 -999 -999 -999 -999 -999
2008-05-05 09:22 51°13.733 2°55.762 -999 -999 -999 -999 -999
2008-05-05 09:23 51°13.703 2°55.845 -999 -999 -999 -999 -999
2008-05-05 09:24 51°13.679 2°55.921 -999 -999 -999 -999 -999
2008-05-05 09:25 51°13.668 2°55.951 -999 -999 -999 -999 -999
2008-05-05 09:26 51°13.666 2°55.955 -999 -999 -999 -999 -999
2008-05-05 09:27 51°13.667 2°55.955 -999 -999 -999 -999 -999
2008-05-05 09:28 51°13.667 2°55.955 -999 -999 -999 -999 -999
2008-05-05 09:29 51°13.668 2°55.955 -999 -999 -999 -999 -999
2008-05-05 09:30 51°13.668 2°55.955 -999 -999 -999 -999 -999
2008-05-05 09:31 51°13.667 2°55.955 -999 -999 -999 -999 -999
2008-05-05 09:32 51°13.666 2°55.955 -999 -999 -999 -999 -999
2008-05-05 09:33 51°13.667 2°55.955 -999 -999 -999 -999 -999
2008-05-05 09:34 51°13.666 2°55.955 -999 -999 -999 -999 -999
2008-05-05 09:35 51°13.666 2°55.956 -999 -999 -999 -999 -999
2008-05-05 09:36 51°13.666 2°55.955 -999 -999 -999 -999 -999
2008-05-05 09:37 51°13.665 2°55.955 -999 -999 -999 -999 -999
2008-05-05 09:38 51°13.665 2°55.954 -999 -999 -999 -999 -999
2008-05-05 09:39 51°13.666 2°55.955 -999 -999 -999 -999 -999
2008-05-05 09:40 51°13.667 2°55.955 -999 -999 -999 -999 -999
2008-05-05 09:41 51°13.667 2°55.955 -999 -999 -999 -999 -999
2008-05-05 09:42 51°13.666 2°55.955 -999 -999 -999 -999 -999
2008-05-05 09:43 51°13.667 2°55.955 -999 -999 -999 -999 -999
2008-05-05 09:44 51°13.666 2°55.955 -999 -999 -999 -999 -999
2008-05-05 09:45 51°13.666 2°55.954 -999 -999 -999 -999 -999
2008-05-05 09:46 51°13.666 2°55.954 -999 -999 -999 -999 -999
2008-05-05 09:47 51°13.666 2°55.954 -999 -999 -999 -999 -999
2008-05-05 09:48 51°13.666 2°55.954 -999 -999 -999 -999 -999
2008-05-05 09:49 51°13.666 2°55.953 -999 -999 -999 -999 -999
2008-05-05 09:50 51°13.666 2°55.954 -999 -999 -999 -999 -999
2008-05-05 09:51 51°13.666 2°55.954 -999 -999 -999 -999 -999
2008-05-05 09:52 51°13.665 2°55.954 -999 -999 -999 -999 -999
2008-05-05 09:53 51°13.665 2°55.954 -999 -999 -999 -999 -999
2008-05-05 09:54 51°13.665 2°55.954 -999 -999 -999 -999 -999
2008-05-05 09:55 51°13.665 2°55.954 -999 -999 -999 -999 -999
2008-05-05 09:56 51°13.665 2°55.954 -999 -999 -999 -999 -999
2008-05-05 09:57 51°13.665 2°55.955 -999 -999 -999 -999 -999
2008-05-05 09:58 51°13.665 2°55.954 -999 -999 -999 -999 -999
2008-05-05 09:59 51°13.665 2°55.954 -999 -999 -999 -999 -999
2008-05-05 10:00 51°13.666 2°55.954 -999 -999 -999 -999 -999
2008-05-05 10:01 51°13.665 2°55.954 -999 -999 -999 -999 -999
2008-05-05 10:02 51°13.665 2°55.954 -999 -999 -999 -999 -999
2008-05-05 10:03 51°13.665 2°55.955 -999 -999 -999 -999 -999
2008-05-05 10:04 51°13.665 2°55.955 -999 -999 -999 -999 -999
2008-05-05 10:05 51°13.665 2°55.954 -999 -999 -999 -999 -999
2008-05-05 10:06 51°13.665 2°55.954 -999 -999 -999 -999 -999
2008-05-05 10:07 51°13.665 2°55.954 -999 -999 -999 -999 -999
2008-05-05 10:08 51°13.665 2°55.955 -999 -999 -999 -999 -999
2008-05-05 10:09 51°13.665 2°55.953 -999 -999 -999 -999 -999
2008-05-05 10:10 51°13.665 2°55.954 -999 -999 -999 -999 -999
2008-05-05 10:11 51°13.665 2°55.954 -999 -999 -999 -999 -999
2008-05-05 10:12 51°13.665 2°55.954 -999 -999 -999 -999 -999
2008-05-05 10:13 51°13.665 2°55.954 -999 -999 -999 -999 -999
2008-05-05 10:14 51°13.665 2°55.954 -999 -999 -999 -999 -999
2008-05-05 10:15 51°13.665 2°55.954 -999 -999 -999 -999 -999
2008-05-05 10:16 51°13.665 2°55.954 -999 -999 -999 -999 -999
2008-05-05 10:17 51°13.665 2°55.955 -999 -999 -999 -999 -999
2008-05-05 10:18 51°13.665 2°55.956 -999 -999 -999 -999 -999
2008-05-05 10:19 51°13.665 2°55.955 -999 -999 -999 -999 -999
2008-05-05 10:20 51°13.665 2°55.955 -999 -999 -999 -999 -999
2008-05-05 10:21 51°13.666 2°55.955 -999 -999 -999 -999 -999
2008-05-05 10:22 51°13.666 2°55.955 -999 -999 -999 -999 -999
2008-05-05 10:23 51°13.665 2°55.955 -999 -999 -999 -999 -999
2008-05-05 10:24 51°13.665 2°55.954 -999 -999 -999 -999 -999
2008-05-05 10:25 51°13.665 2°55.955 -999 -999 -999 -999 -999
2008-05-05 10:26 51°13.665 2°55.955 -999 -999 -999 -999 -999
2008-05-05 10:27 51°13.665 2°55.955 -999 -999 -999 -999 -999
2008-05-05 10:28 51°13.665 2°55.955 -999 -999 -999 -999 -999
2008-05-05 10:29 51°13.665 2°55.955 -999 -999 -999 -999 -999
2008-05-05 10:30 51°13.665 2°55.955 -999 -999 -999 -999 -999
2008-05-05 10:31 51°13.666 2°55.955 -999 -999 -999 -999 -999
2008-05-05 10:32 51°13.665 2°55.954 -999 -999 -999 -999 -999
2008-05-05 10:33 51°13.665 2°55.953 -999 -999 -999 -999 -999
2008-05-05 10:34 51°13.665 2°55.953 -999 -999 -999 -999 -999
2008-05-05 10:35 51°13.666 2°55.954 -999 -999 -999 -999 -999
2008-05-05 10:36 51°13.666 2°55.954 -999 -999 -999 -999 -999
2008-05-05 10:37 51°13.666 2°55.954 -999 -999 -999 -999 -999
2008-05-05 10:38 51°13.666 2°55.952 -999 -999 -999 -999 -999
2008-05-05 10:39 51°13.666 2°55.953 -999 -999 -999 -999 -999
2008-05-05 10:40 51°13.666 2°55.953 -999 -999 -999 -999 -999
2008-05-05 10:41 51°13.666 2°55.954 -999 -999 -999 -999 -999
2008-05-05 10:42 51°13.666 2°55.954 -999 -999 -999 -999 -999
2008-05-05 10:43 51°13.667 2°55.954 -999 -999 -999 -999 -999
2008-05-05 10:44 51°13.667 2°55.955 -999 -999 -999 -999 -999
2008-05-05 10:45 51°13.667 2°55.956 -999 -999 -999 -999 -999
2008-05-05 10:46 51°13.667 2°55.955 -999 -999 -999 -999 -999
2008-05-05 10:47 51°13.666 2°55.955 -999 -999 -999 -999 -999
2008-05-05 10:48 51°13.666 2°55.955 -999 -999 -999 -999 -999
2008-05-05 10:49 51°13.666 2°55.955 -999 -999 -999 -999 -999
2008-05-05 10:50 51°13.666 2°55.955 -999 -999 -999 -999 -999
2008-05-05 10:51 51°13.666 2°55.955 -999 -999 -999 -999 -999
2008-05-05 10:52 51°13.666 2°55.954 -999 -999 -999 -999 -999
2008-05-05 10:53 51°13.666 2°55.954 -999 -999 -999 -999 -999
2008-05-05 10:54 51°13.667 2°55.954 -999 -999 -999 -999 -999
2008-05-05 10:55 51°13.666 2°55.954 -999 -999 -999 -999 -999
2008-05-05 10:56 51°13.667 2°55.953 -999 -999 -999 -999 -999
2008-05-05 10:57 51°13.666 2°55.953 -999 -999 -999 -999 -999
2008-05-05 10:58 51°13.666 2°55.953 -999 -999 -999 -999 -999
2008-05-05 10:59 51°13.666 2°55.953 -999 -999 -999 -999 -999
2008-05-05 11:00 51°13.666 2°55.953 -999 -999 -999 -999 -999
2008-05-05 11:01 51°13.666 2°55.953 -999 -999 -999 -999 -999
2008-05-05 11:02 51°13.666 2°55.953 -999 -999 -999 -999 -999
2008-05-05 11:03 51°13.665 2°55.952 -999 -999 -999 -999 -999
2008-05-05 11:04 51°13.666 2°55.952 -999 -999 -999 -999 -999
2008-05-05 11:05 51°13.666 2°55.952 -999 -999 -999 -999 -999
2008-05-05 11:06 51°13.666 2°55.953 -999 -999 -999 -999 -999
2008-05-05 11:07 51°13.666 2°55.953 -999 -999 -999 -999 -999
2008-05-05 11:08 51°13.667 2°55.955 -999 -999 -999 -999 -999
2008-05-05 11:09 51°13.666 2°55.954 -999 -999 -999 -999 -999
2008-05-05 11:10 51°13.667 2°55.953 -999 -999 -999 -999 -999
2008-05-05 11:11 51°13.666 2°55.953 -999 -999 -999 -999 -999
2008-05-05 11:12 51°13.667 2°55.953 -999 -999 -999 -999 -999
2008-05-05 11:13 51°13.666 2°55.953 -999 -999 -999 -999 -999
2008-05-05 11:14 51°13.665 2°55.955 -999 -999 -999 -999 -999
2008-05-05 11:15 51°13.665 2°55.956 -999 -999 -999 -999 -999
2008-05-05 11:16 51°13.665 2°55.956 -999 -999 -999 -999 -999
2008-05-05 11:17 51°13.68 2°55.911 -999 -999 -999 -999 -999
2008-05-05 11:18 51°13.699 2°55.826 -999 -999 -999 -999 -999
2008-05-05 11:19 51°13.704 2°55.761 -999 -999 -999 -999 -999
2008-05-05 11:20 51°13.705 2°55.754 -999 -999 -999 -999 -999
2008-05-05 11:21 51°13.713 2°55.74 -999 -999 -999 -999 -999
2008-05-05 11:22 51°13.768 2°55.702 -999 -999 -999 -999 -999
2008-05-05 11:23 51°13.847 2°55.624 -999 -999 -999 -999 -999
2008-05-05 11:24 51°13.94 2°55.554 -999 -999 -999 -999 -999
2008-05-05 11:25 51°14.028 2°55.495 -999 -999 -999 -999 -999
2008-05-05 11:26 51°14.114 2°55.433 -999 -999 -999 -999 -999
2008-05-05 11:27 51°14.208 2°55.336 -999 -999 -999 -999 -999
2008-05-05 11:28 51°14.294 2°55.194 -999 -999 -999 -999 -999
2008-05-05 11:29 51°14.376 2°55.02 -999 -999 -999 -999 -999
2008-05-05 11:30 51°14.477 2°54.816 -999 -999 -999 -999 -999
2008-05-05 11:31 51°14.511 2°54.537 -999 -999 -999 -999 -999
2008-05-05 11:32 51°14.458 2°54.279 -999 -999 -999 -999 -999
2008-05-05 11:33 51°14.395 2°54.015 -999 -999 -999 -999 -999
2008-05-05 11:34 51°14.343 2°53.751 -999 -999 -999 -999 -999
2008-05-05 11:35 51°14.277 2°53.499 -999 -999 -999 -999 -999
2008-05-05 11:36 51°14.219 2°53.242 -999 -999 -999 -999 -999
2008-05-05 11:37 51°14.159 2°52.987 -999 -999 -999 -999 -999
2008-05-05 11:38 51°14.094 2°52.753 -999 -999 -999 -999 -999
2008-05-05 11:39 51°14.019 2°52.533 -999 -999 -999 -999 -999
2008-05-05 11:40 51°13.941 2°52.302 -999 -999 -999 -999 -999
2008-05-05 11:41 51°13.856 2°52.081 -999 -999 -999 -999 -999
2008-05-05 11:42 51°13.767 2°51.851 -999 -999 -999 -999 -999
2008-05-05 11:43 51°13.673 2°51.629 -999 -999 -999 -999 -999
2008-05-05 11:44 51°13.577 2°51.408 -999 -999 -999 -999 -999
2008-05-05 11:45 51°13.486 2°51.179 -999 -999 -999 -999 -999
2008-05-05 11:46 51°13.399 2°50.951 -999 -999 -999 -999 -999
2008-05-05 11:47 51°13.308 2°50.718 -999 -999 -999 -999 -999
2008-05-05 11:48 51°13.215 2°50.492 -999 -999 -999 -999 -999
2008-05-05 11:49 51°13.125 2°50.262 -999 -999 -999 -999 -999
2008-05-05 11:50 51°13.038 2°50.028 -999 -999 -999 -999 -999
2008-05-05 11:51 51°12.93 2°49.816 -999 -999 -999 -999 -999
2008-05-05 11:52 51°12.836 2°49.589 -999 -999 -999 -999 -999
2008-05-05 11:53 51°12.743 2°49.359 -999 -999 -999 -999 -999
2008-05-05 11:54 51°12.651 2°49.126 -999 -999 -999 -999 -999
2008-05-05 11:55 51°12.554 2°48.899 -999 -999 -999 -999 -999
2008-05-05 11:56 51°12.471 2°48.658 -999 -999 -999 -999 -999
2008-05-05 11:57 51°12.39 2°48.415 -999 -999 -999 -999 -999
2008-05-05 11:57 51°20.63 2°38.693 -999 -999 -999 -999 -999
2008-05-05 11:58 51°12.301 2°48.126 -999 -999 -999 -999 -999
2008-05-05 11:59 51°12.234 2°47.865 -999 -999 -999 -999 -999
2008-05-05 12:00 51°12.169 2°47.608 -999 -999 -999 -999 -999
2008-05-05 12:01 51°12.099 2°47.36 -999 -999 -999 -999 -999
2008-05-05 12:02 51°12.031 2°47.102 -999 -999 -999 -999 -999
2008-05-05 12:03 51°11.973 2°46.847 -999 -999 -999 -999 -999
2008-05-05 12:04 51°11.919 2°46.584 -999 -999 -999 -999 -999
2008-05-05 12:05 51°11.87 2°46.317 -999 -999 -999 -999 -999
2008-05-05 12:06 51°11.824 2°46.048 -999 -999 -999 -999 -999
2008-05-05 12:07 51°11.77 2°45.782 -999 -999 -999 -999 -999
2008-05-05 12:08 51°11.736 2°45.507 -999 -999 -999 -999 -999
2008-05-05 12:09 51°11.704 2°45.23 -999 -999 -999 -999 -999
2008-05-05 12:10 51°11.669 2°44.954 -999 -999 -999 -999 -999
2008-05-05 12:11 51°11.635 2°44.678 -999 -999 -999 -999 -999
2008-05-05 12:12 51°11.603 2°44.401 -999 -999 -999 -999 -999
2008-05-05 12:13 51°11.581 2°44.119 -999 -999 -999 -999 -999
2008-05-05 12:14 51°11.558 2°43.838 -999 -999 -999 -999 -999
2008-05-05 12:15 51°11.534 2°43.556 -999 -999 -999 -999 -999
2008-05-05 12:16 51°11.497 2°43.278 -999 -999 -999 -999 -999
2008-05-05 12:17 51°11.453 2°43.005 -999 -999 -999 -999 -999
2008-05-05 12:18 51°11.39 2°42.741 -999 -999 -999 -999 -999
2008-05-05 12:19 51°11.309 2°42.491 -999 -999 -999 -999 -999
2008-05-05 12:20 51°11.217 2°42.25 -999 -999 -999 -999 -999
2008-05-05 12:21 51°11.123 2°42.012 -999 -999 -999 -999 -999
2008-05-05 12:22 51°11.046 2°41.758 -999 -999 -999 -999 -999
2008-05-05 12:23 51°10.962 2°41.509 -999 -999 -999 -999 -999
2008-05-05 12:24 51°10.883 2°41.259 -999 -999 -999 -999 -999
2008-05-05 12:25 51°10.81 2°41.004 -999 -999 -999 -999 -999
2008-05-05 12:26 51°10.731 2°40.753 -999 -999 -999 -999 -999
2008-05-05 12:27 51°10.65 2°40.504 -999 -999 -999 -999 -999
2008-05-05 12:28 51°10.552 2°40.272 -999 -999 -999 -999 -999
2008-05-05 12:29 51°10.459 2°40.033 -999 -999 -999 -999 -999
2008-05-05 12:30 51°10.368 2°39.792 -999 -999 -999 -999 -999
2008-05-05 12:31 51°10.278 2°39.552 -999 -999 -999 -999 -999
2008-05-05 12:32 51°10.221 2°39.401 -999 -999 -999 -999 -999
2008-05-05 12:33 51°10.226 2°39.378 -999 -999 -999 -999 -999
2008-05-05 12:34 51°10.242 2°39.397 -999 -999 -999 -999 -999
2008-05-05 12:35 51°10.257 2°39.422 -999 -999 -999 -999 -999
2008-05-05 12:36 51°10.271 2°39.448 -999 -999 -999 -999 -999
2008-05-05 12:37 51°10.284 2°39.474 -999 -999 -999 -999 -999
2008-05-05 12:38 51°10.296 2°39.502 -999 -999 -999 -999 -999
2008-05-05 12:39 51°10.307 2°39.53 -999 -999 -999 -999 -999
2008-05-05 12:40 51°10.317 2°39.558 -999 -999 -999 -999 -999
2008-05-05 12:41 51°10.327 2°39.587 -999 -999 -999 -999 -999
2008-05-05 12:42 51°10.336 2°39.615 -999 -999 -999 -999 -999
2008-05-05 12:43 51°10.345 2°39.644 -999 -999 -999 -999 -999
2008-05-05 12:44 51°10.354 2°39.674 -999 -999 -999 -999 -999
2008-05-05 12:45 51°10.366 2°39.693 -999 -999 -999 -999 -999
2008-05-05 12:46 51°10.362 2°39.667 -999 -999 -999 -999 -999
2008-05-05 12:47 51°10.327 2°39.653 -999 -999 -999 -999 -999
2008-05-05 12:48 51°10.286 2°39.61 -999 -999 -999 -999 -999
2008-05-05 12:49 51°10.271 2°39.558 -999 -999 -999 -999 -999
2008-05-05 12:50 51°10.269 2°39.496 -999 -999 -999 -999 -999
2008-05-05 12:51 51°10.256 2°39.414 -999 -999 -999 -999 -999
2008-05-05 12:52 51°10.241 2°39.333 -999 -999 -999 -999 -999
2008-05-05 12:53 51°10.228 2°39.253 -999 -999 -999 -999 -999
2008-05-05 12:54 51°10.203 2°39.189 -999 -999 -999 -999 -999
2008-05-05 12:55 51°10.177 2°39.122 -999 -999 -999 -999 -999
2008-05-05 12:56 51°10.154 2°39.051 -999 -999 -999 -999 -999
2008-05-05 12:57 51°10.131 2°38.977 -999 -999 -999 -999 -999
2008-05-05 12:58 51°10.108 2°38.905 -999 -999 -999 -999 -999
2008-05-05 12:59 51°10.086 2°38.831 -999 -999 -999 -999 -999
2008-05-05 13:00 51°10.066 2°38.757 -999 -999 -999 -999 -999
2008-05-05 13:01 51°10.047 2°38.685 -999 -999 -999 -999 -999
2008-05-05 13:02 51°10.026 2°38.612 -999 -999 -999 -999 -999
2008-05-05 13:03 51°10.005 2°38.539 -999 -999 -999 -999 -999
2008-05-05 13:04 51°9.984 2°38.464 -999 -999 -999 -999 -999
2008-05-05 13:05 51°9.963 2°38.389 -999 -999 -999 -999 -999
2008-05-05 13:06 51°9.941 2°38.314 -999 -999 -999 -999 -999
2008-05-05 13:07 51°9.921 2°38.235 -999 -999 -999 -999 -999
2008-05-05 13:08 51°9.902 2°38.156 -999 -999 -999 -999 -999
2008-05-05 13:09 51°9.884 2°38.076 -999 -999 -999 -999 -999
2008-05-05 13:10 51°9.866 2°37.996 -999 -999 -999 -999 -999
2008-05-05 13:11 51°9.849 2°37.917 -999 -999 -999 -999 -999
2008-05-05 13:12 51°9.837 2°37.848 -999 -999 -999 -999 -999
2008-05-05 13:13 51°9.825 2°37.782 -999 -999 -999 -999 -999
2008-05-05 13:14 51°9.813 2°37.717 -999 -999 -999 -999 -999
2008-05-05 13:15 51°9.798 2°37.646 -999 -999 -999 -999 -999
2008-05-05 13:16 51°9.782 2°37.574 -999 -999 -999 -999 -999
2008-05-05 13:17 51°9.766 2°37.503 -999 -999 -999 -999 -999
2008-05-05 13:18 51°9.751 2°37.43 -999 -999 -999 -999 -999
2008-05-05 13:19 51°9.734 2°37.359 -999 -999 -999 -999 -999
2008-05-05 13:20 51°9.716 2°37.288 -999 -999 -999 -999 -999
2008-05-05 13:21 51°9.701 2°37.214 -999 -999 -999 -999 -999
2008-05-05 13:22 51°9.686 2°37.14 -999 -999 -999 -999 -999
2008-05-05 13:23 51°9.693 2°37.064 -999 -999 -999 -999 -999
2008-05-05 13:24 51°9.734 2°37.005 -999 -999 -999 -999 -999
2008-05-05 13:25 51°9.788 2°36.976 -999 -999 -999 -999 -999
2008-05-05 13:26 51°9.834 2°36.967 -999 -999 -999 -999 -999
2008-05-05 13:27 51°9.874 2°36.973 -999 -999 -999 -999 -999
2008-05-05 13:28 51°9.902 2°36.982 -999 -999 -999 -999 -999
2008-05-05 13:29 51°9.921 2°36.984 -999 -999 -999 -999 -999
2008-05-05 13:30 51°9.935 2°36.988 -999 -999 -999 -999 -999
2008-05-05 13:31 51°9.96 2°36.991 -999 -999 -999 -999 -999
2008-05-05 13:32 51°10.027 2°37.099 -999 -999 -999 -999 -999
2008-05-05 13:33 51°10.128 2°37.329 -999 -999 -999 -999 -999
2008-05-05 13:34 51°10.184 2°37.643 -999 -999 -999 -999 -999
2008-05-05 13:35 51°10.248 2°37.974 -999 -999 -999 -999 -999
2008-05-05 13:36 51°10.37 2°38.272 -999 -999 -999 -999 -999
2008-05-05 13:37 51°10.459 2°38.6 -999 -999 -999 -999 -999
2008-05-05 13:38 51°10.539 2°38.931 -999 -999 -999 -999 -999
2008-05-05 13:39 51°10.622 2°39.259 -999 -999 -999 -999 -999
2008-05-05 13:40 51°10.706 2°39.586 -999 -999 -999 -999 -999
2008-05-05 13:41 51°10.793 2°39.912 -999 -999 -999 -999 -999
2008-05-05 13:42 51°10.887 2°40.232 -999 -999 -999 -999 -999
2008-05-05 13:43 51°10.971 2°40.56 -999 -999 -999 -999 -999
2008-05-05 13:44 51°11.041 2°40.896 -999 -999 -999 -999 -999
2008-05-05 13:45 51°11.109 2°41.234 -999 -999 -999 -999 -999
2008-05-05 13:46 51°11.175 2°41.57 -999 -999 -999 -999 -999
2008-05-05 13:47 51°11.241 2°41.906 -999 -999 -999 -999 -999
2008-05-05 13:48 51°11.307 2°42.24 -999 -999 -999 -999 -999
2008-05-05 13:49 51°11.364 2°42.577 -999 -999 -999 -999 -999
2008-05-05 13:50 51°11.421 2°42.913 -999 -999 -999 -999 -999
2008-05-05 13:51 51°11.481 2°43.248 -999 -999 -999 -999 -999
2008-05-05 13:52 51°11.532 2°43.587 -999 -999 -999 -999 -999
2008-05-05 13:53 51°11.583 2°43.925 -999 -999 -999 -999 -999
2008-05-05 13:54 51°11.646 2°44.259 -999 -999 -999 -999 -999
2008-05-05 13:55 51°11.704 2°44.594 -999 -999 -999 -999 -999
2008-05-05 13:56 51°11.765 2°44.926 -999 -999 -999 -999 -999
2008-05-05 13:57 51°11.82 2°45.262 -999 -999 -999 -999 -999
2008-05-05 13:58 51°11.866 2°45.601 -999 -999 -999 -999 -999
2008-05-05 13:59 51°11.919 2°45.936 -999 -999 -999 -999 -999
2008-05-05 14:00 51°11.977 2°46.269 -999 -999 -999 -999 -999
2008-05-05 14:01 51°12.031 2°46.604 -999 -999 -999 -999 -999
2008-05-05 14:02 51°12.083 2°46.94 -999 -999 -999 -999 -999
2008-05-05 14:03 51°12.132 2°47.276 -999 -999 -999 -999 -999
2008-05-05 14:04 51°12.214 2°47.596 -999 -999 -999 -999 -999
2008-05-05 14:05 51°12.319 2°47.899 -999 -999 -999 -999 -999
2008-05-05 14:06 51°12.423 2°48.203 -999 -999 -999 -999 -999
2008-05-05 14:07 51°12.524 2°48.509 -999 -999 -999 -999 -999
2008-05-05 14:08 51°12.623 2°48.817 -999 -999 -999 -999 -999
2008-05-05 14:09 51°12.719 2°49.127 -999 -999 -999 -999 -999
2008-05-05 14:10 51°12.811 2°49.44 -999 -999 -999 -999 -999
2008-05-05 14:11 51°12.922 2°49.738 -999 -999 -999 -999 -999
2008-05-05 14:12 51°13.037 2°50.031 -999 -999 -999 -999 -999
2008-05-05 14:13 51°13.151 2°50.326 -999 -999 -999 -999 -999
2008-05-05 14:14 51°13.267 2°50.619 -999 -999 -999 -999 -999
2008-05-05 14:15 51°13.383 2°50.913 -999 -999 -999 -999 -999
2008-05-05 14:16 51°13.503 2°51.201 -999 -999 -999 -999 -999
2008-05-05 14:17 51°13.623 2°51.49 -999 -999 -999 -999 -999
2008-05-05 14:18 51°13.741 2°51.782 -999 -999 -999 -999 -999
2008-05-05 14:19 51°13.856 2°52.065 -999 -999 -999 -999 -999
2008-05-05 14:20 51°13.933 2°52.306 -999 -999 -999 -999 -999
2008-05-05 14:21 51°13.989 2°52.547 -999 -999 -999 -999 -999
2008-05-05 14:22 51°14.043 2°52.786 -999 -999 -999 -999 -999
2008-05-05 14:23 51°14.097 2°53.022 -999 -999 -999 -999 -999
2008-05-05 14:24 51°14.152 2°53.25 -999 -999 -999 -999 -999
2008-05-05 14:25 51°14.193 2°53.398 -999 -999 -999 -999 -999
2008-05-05 14:26 51°14.224 2°53.506 -999 -999 -999 -999 -999
2008-05-05 14:27 51°14.25 2°53.621 -999 -999 -999 -999 -999
2008-05-05 14:28 51°14.276 2°53.737 -999 -999 -999 -999 -999
2008-05-05 14:29 51°14.304 2°53.854 -999 -999 -999 -999 -999
2008-05-05 14:30 51°14.332 2°53.971 -999 -999 -999 -999 -999
2008-05-05 14:31 51°14.361 2°54.087 -999 -999 -999 -999 -999
2008-05-05 14:32 51°14.389 2°54.203 -999 -999 -999 -999 -999
2008-05-05 14:33 51°14.407 2°54.271 -999 -999 -999 -999 -999
2008-05-05 14:34 51°14.412 2°54.296 -999 -999 -999 -999 -999
2008-05-05 14:35 51°14.414 2°54.315 -999 -999 -999 -999 -999
2008-05-05 14:36 51°14.413 2°54.33 -999 -999 -999 -999 -999
2008-05-05 14:37 51°14.42 2°54.458 -999 -999 -999 -999 -999
2008-05-05 14:38 51°14.416 2°54.691 -999 -999 -999 -999 -999
2008-05-05 14:39 51°14.387 2°54.917 -999 -999 -999 -999 -999
2008-05-05 14:40 51°14.327 2°55.122 -999 -999 -999 -999 -999
2008-05-05 14:41 51°14.239 2°55.293 -999 -999 -999 -999 -999
2008-05-05 14:42 51°14.129 2°55.424 -999 -999 -999 -999 -999
2008-05-05 14:43 51°14.015 2°55.509 -999 -999 -999 -999 -999
2008-05-05 14:44 51°13.931 2°55.569 -999 -999 -999 -999 -999
2008-05-05 14:45 51°13.868 2°55.608 -999 -999 -999 -999 -999
2008-05-05 14:46 51°13.828 2°55.638 -999 -999 -999 -999 -999
2008-05-05 14:47 51°13.804 2°55.662 -999 -999 -999 -999 -999
2008-05-05 14:48 51°13.781 2°55.683 -999 -999 -999 -999 -999
2008-05-05 14:49 51°13.764 2°55.703 -999 -999 -999 -999 -999
2008-05-05 14:50 51°13.741 2°55.745 -999 -999 -999 -999 -999
2008-05-05 14:51 51°13.708 2°55.807 -999 -999 -999 -999 -999
2008-05-05 14:52 51°13.675 2°55.894 -999 -999 -999 -999 -999
2008-05-05 14:53 51°13.662 2°55.95 -999 -999 -999 -999 -999